Time;durP1;ratioP1;P1;durP2;ratioP2;P2;SDS_P1;SDS_P2;PMS_P1;PMS_P2;Temp;Humidity;BMP_temperature;BMP_pressure;BME280_temperature;BME280_humidity;BME280_pressure;Samples;Min_cycle;Max_cycle;Signal;HPM_P1;HPM_P2
2021/06/10 00:01:08;;;;;;;7.33;6.60;;;;;;;22.75;55.60;94274.52;828478;71;29690;-76
2021/06/10 00:16:08;;;;;;;7.00;6.40;;;;;;;22.73;55.35;94260.75;828345;71;30236;-76
2021/06/10 00:31:15;;;;;;;7.23;6.70;;;;;;;22.59;55.66;94228.00;827604;71;32686;-77
2021/06/10 00:46:14;;;;;;;7.27;6.67;;;;;;;22.50;55.49;94214.92;827464;71;32751;-78
2021/06/10 01:01:09;;;;;;;6.67;6.07;;;;;;;22.36;55.73;94204.91;828490;71;30267;-81
2021/06/10 01:16:10;;;;;;;6.50;6.00;;;;;;;22.39;55.56;94206.07;828451;71;30316;-78
2021/06/10 01:31:13;;;;;;;7.17;6.60;;;;;;;22.43;55.66;94217.56;828508;71;29706;-78
2021/06/10 01:46:11;;;;;;;8.23;7.57;;;;;;;22.39;55.71;94242.92;834851;71;30296;-79
2021/06/10 02:01:11;;;;;;;8.00;7.30;;;;;;;22.35;55.46;94237.36;829176;71;31429;-78
2021/06/10 02:16:16;;;;;;;7.13;6.43;;;;;;;22.33;54.85;94212.31;827581;71;32766;-77
2021/06/10 02:31:15;;;;;;;6.97;6.47;;;;;;;22.27;54.62;94243.20;829308;71;32730;-80
2021/06/10 02:46:10;;;;;;;7.03;6.53;;;;;;;22.19;54.60;94237.56;828668;71;30282;-77
2021/06/10 03:16:16;;;;;;;8.38;7.58;;;;;;;21.48;56.50;94240.25;827507;71;32651;-76
2021/06/10 03:31:17;;;;;;;7.20;6.60;;;;;;;21.70;55.66;94244.70;828362;71;32705;-76
2021/06/10 03:46:10;;;;;;;7.00;6.47;;;;;;;22.43;54.01;94242.20;828431;71;30283;-77
2021/06/10 04:01:15;;;;;;;9.77;8.40;;;;;;;22.77;56.59;94236.92;827401;71;32770;-78
2021/06/10 04:16:14;;;;;;;25.63;21.43;;;;;;;23.29;55.53;94228.83;827656;71;32699;-80
2021/06/10 04:31:08;;;;;;;13.13;11.83;;;;;;;23.91;53.09;94237.31;820424;70;29776;-78
2021/06/10 04:46:14;;;;;;;10.53;9.37;;;;;;;24.51;50.99;94227.86;827531;71;32711;-77
2021/06/10 05:01:08;;;;;;;10.50;9.50;;;;;;;25.16;48.97;94225.86;816415;70;29770;-78
2021/06/10 05:16:12;;;;;;;11.50;10.00;;;;;;;25.53;47.36;94213.86;823535;71;32484;-75
2021/06/10 05:31:12;;;;;;;8.83;8.03;;;;;;;22.57;45.51;93634.67;823389;71;32101;-77
2021/06/10 05:46:10;;;;;;;9.90;9.00;;;;;;;26.55;44.20;94224.98;828218;71;30274;-77
2021/06/10 06:01:14;;;;;;;9.83;9.03;;;;;;;;;;827428;71;32693;-77
2021/06/10 06:16:10;;;;;;;13.10;9.63;;;;;;;;;;827996;71;31320;-77
2021/06/10 06:31:20;;;;;;;10.43;9.43;;;;;;;27.89;42.30;94241.38;827508;71;32749;-78
2021/06/10 06:46:09;;;;;;;9.07;8.27;;;;;;;29.12;39.74;94257.31;829142;71;30278;-76
2021/06/10 07:01:09;;;;;;;8.03;7.43;;;;;;;30.12;38.01;94260.02;834302;71;31071;-77
2021/06/10 07:16:08;;;;;;;7.90;7.20;;;;;;;29.98;38.07;94272.50;822332;71;30311;-77
2021/06/10 07:31:08;;;;;;;8.43;7.73;;;;;;;29.62;37.86;94290.76;828331;71;30137;-78
2021/06/10 07:46:10;;;;;;;8.83;8.13;;;;;;;28.80;39.03;94332.10;828207;71;30899;-76
2021/06/10 08:01:08;;;;;;;7.63;7.13;;;;;;;;;;834035;71;29796;-75
2021/06/10 08:16:13;;;;;;;6.40;6.00;;;;;;;23.48;47.43;94344.28;828103;71;32925;-78
2021/06/10 08:31:09;;;;;;;5.03;4.73;;;;;;;22.35;46.60;94346.39;828086;71;29282;-75
2021/06/10 08:46:14;;;;;;;7.07;6.47;;;;;;;21.84;48.92;94348.82;831424;71;30337;-77
2021/06/10 09:16:20;;;;;;;8.23;7.40;;;;;;;21.44;55.28;94332.30;834174;71;28699;-77
2021/06/10 09:31:17;;;;;;;6.63;6.13;;;;;;;22.21;52.29;94324.83;827691;71;31707;-80
2021/06/10 09:46:09;;;;;;;6.50;6.00;;;;;;;24.10;45.78;94316.63;828552;71;29247;-78
2021/06/10 10:01:14;;;;;;;14.03;12.83;;;;;;;24.77;39.50;94303.74;829148;71;29267;-76
2021/06/10 10:16:16;;;;;;;4.40;4.10;;;;;;;25.94;36.87;94280.52;827491;71;31774;-77
2021/06/10 10:31:11;;;;;;;4.00;3.80;;;;;;;26.64;36.36;94267.61;828364;71;28797;-78
2021/06/10 10:46:21;;;;;;;3.80;3.60;;;;;;;26.64;35.66;94270.89;834223;71;32229;-76
2021/06/10 11:01:22;;;;;;;3.33;3.20;;;;;;;26.85;35.76;94261.89;814322;71;31924;-75
2021/06/10 11:16:08;;;;;;;3.53;3.33;;;;;;;;;;816913;71;29330;-79
2021/06/10 11:31:17;;;;;;;4.30;4.00;;;;;;;27.22;34.27;94228.82;828186;71;29184;-78
2021/06/10 11:46:11;;;;;;;4.20;4.00;;;;;;;;;;828325;71;28674;-74
2021/06/10 12:01:15;;;;;;;4.67;4.37;;;;;;;26.28;35.54;94196.56;812309;71;31792;-77
2021/06/10 12:16:12;;;;;;;4.30;4.10;;;;;;;26.43;35.43;94182.41;834025;71;30760;-77
2021/06/10 12:31:17;;;;;;;4.47;4.13;;;;;;;26.26;35.43;94167.94;827584;71;32649;-75
2021/06/10 12:46:10;;;;;;;4.70;4.40;;;;;;;26.72;35.90;94168.72;828249;71;30308;-78
2021/06/10 13:01:11;;;;;;;4.93;4.63;;;;;;;;;;827954;71;31456;-75
2021/06/10 13:16:13;;;;;;;5.93;5.53;;;;;;;27.36;37.95;94182.12;828273;71;29823;-80
2021/06/10 13:31:23;;;;;;;6.87;6.33;;;;;;;27.18;41.85;94173.62;828511;71;30777;-74
2021/06/10 13:46:14;;;;;;;6.57;5.80;;;;;;;;;;827692;71;32689;-75
2021/06/10 14:01:09;;;;;;;6.40;5.90;;;;;;;;;;833056;70;30293;-75
2021/06/10 14:16:10;;;;;;;7.10;6.50;;;;;;;;;;824836;71;30161;-74
2021/06/10 14:46:15;;;;;;;6.93;6.30;;;;;;;26.84;43.09;94125.30;817504;71;32977;-72
2021/06/10 15:16:10;;;;;;;6.57;6.07;;;;;;;26.11;44.39;94169.20;820870;71;30388;-75
2021/06/10 15:31:21;;;;;;;6.77;6.17;;;;;;;26.09;43.80;94171.52;820956;71;32790;-75
2021/06/10 15:46:09;;;;;;;7.27;6.67;;;;;;;25.73;44.15;94179.77;825304;71;30241;-74
2021/06/10 16:01:13;;;;;;;7.20;6.70;;;;;;;25.50;46.17;94171.63;828089;71;33060;-74
2021/06/10 16:16:15;;;;;;;7.80;7.20;;;;;;;25.38;46.27;94170.73;825439;71;32779;-77
2021/06/10 16:31:14;;;;;;;7.87;7.33;;;;;;;25.18;47.79;94183.81;827439;71;32756;-78
2021/06/10 16:46:10;;;;;;;11.03;9.20;;;;;;;24.77;49.09;94206.54;819592;70;30920;-78
2021/06/10 17:01:17;;;;;;;8.97;8.07;;;;;;;23.95;50.64;94239.43;828345;71;29710;-76
2021/06/10 17:16:15;;;;;;;7.63;7.03;;;;;;;23.36;51.31;94245.52;827375;71;32655;-76
2021/06/10 17:31:08;;;;;;;8.33;7.50;;;;;;;22.89;52.45;94234.52;834107;71;29682;-77
2021/06/10 17:46:14;;;;;;;7.47;6.77;;;;;;;22.51;53.00;94233.09;826544;70;33284;-79
2021/06/10 18:01:09;;;;;;;8.23;7.43;;;;;;;23.37;56.41;94241.68;825472;71;30786;-78
2021/06/10 18:16:18;;;;;;;7.93;7.30;;;;;;;23.85;54.17;94247.45;832726;70;32952;-78
2021/06/10 18:31:08;;;;;;;8.70;7.90;;;;;;;23.59;54.29;94262.63;820675;71;29778;-76
2021/06/10 18:46:11;;;;;;;8.67;7.80;;;;;;;23.32;52.57;94274.95;818959;70;29737;-75
2021/06/10 19:01:14;;;;;;;9.60;8.60;;;;;;;22.26;53.94;94293.77;831809;71;32766;-77
2021/06/10 19:16:15;;;;;;;10.37;9.47;;;;;;;22.80;54.75;94309.73;813595;71;33270;-77
2021/06/10 19:31:30;;;;;;;11.17;10.07;;;;;;;23.32;53.62;94332.52;820294;71;31868;-76
2021/06/10 19:46:26;;;;;;;8.17;7.47;;;;;;;23.21;53.43;94345.05;821012;71;32393;-78
2021/06/10 20:01:18;;;;;;;10.10;9.23;;;;;;;22.87;54.50;94348.39;820381;71;32336;-77
2021/06/10 20:16:18;;;;;;;10.70;9.60;;;;;;;23.26;53.54;94362.70;821581;71;32385;-76
2021/06/10 20:31:26;;;;;;;10.33;9.00;;;;;;;23.29;53.37;94343.95;820037;71;32055;-76
2021/06/10 20:46:10;;;;;;;9.03;8.10;;;;;;;23.29;52.92;94331.91;821254;71;29401;-78
2021/06/10 21:16:11;;;;;;;9.87;8.80;;;;;;;23.21;53.09;94326.31;828319;71;29724;-77
2021/06/10 21:31:10;;;;;;;8.30;7.70;;;;;;;23.16;53.08;94311.38;828157;71;28808;-76
2021/06/10 21:46:15;;;;;;;9.30;8.50;;;;;;;22.96;52.82;94320.77;827755;71;31712;-75
2021/06/10 22:01:10;;;;;;;8.60;7.80;;;;;;;22.66;54.11;94319.56;828295;71;29308;-76
2021/06/10 22:16:10;;;;;;;8.23;7.63;;;;;;;22.80;53.42;94307.06;828945;71;28788;-78
2021/06/10 22:31:09;;;;;;;8.40;7.77;;;;;;;22.83;53.17;94309.59;834632;71;28965;-76
2021/06/10 22:46:20;;;;;;;8.23;7.63;;;;;;;22.73;53.22;94297.66;827664;71;31678;-78
2021/06/10 23:01:15;;;;;;;8.60;7.90;;;;;;;22.75;53.25;94295.38;821497;71;31819;-76
2021/06/10 23:16:08;;;;;;;8.80;7.90;;;;;;;22.72;53.12;94288.08;830187;71;28751;-77
2021/06/10 23:31:09;;;;;;;8.40;7.70;;;;;;;22.64;53.07;94299.86;834093;71;29348;-78
2021/06/10 23:46:15;;;;;;;7.60;7.00;;;;;;;22.62;53.11;94303.47;828118;71;31689;-77
